createdAt,value
2023-01-12T00:00:00.969Z,8.1
2023-01-12T00:01:09.342Z,8.1
2023-01-12T00:02:17.924Z,7.5
2023-01-12T00:03:26.239Z,7.5
2023-01-12T00:04:34.633Z,7.5
2023-01-12T00:05:43.149Z,7.7
2023-01-12T00:06:51.526Z,7.7
2023-01-12T00:07:59.879Z,7.7
2023-01-12T00:09:08.406Z,9.5
2023-01-12T00:10:16.740Z,9.5
2023-01-12T00:11:25.092Z,9.5
2023-01-12T00:12:33.636Z,7.3
2023-01-12T00:13:42.007Z,7.3
2023-01-12T00:14:50.334Z,7.3
2023-01-12T00:15:58.909Z,11.2
2023-01-12T00:17:07.252Z,11.2
2023-01-12T00:18:15.606Z,11.2
2023-01-12T00:19:24.193Z,9.1
2023-01-12T00:20:32.509Z,9.1
2023-01-12T00:21:40.860Z,9.1
2023-01-12T00:22:49.405Z,12.6
2023-01-12T00:23:57.795Z,12.6
2023-01-12T00:25:06.091Z,12.6
2023-01-12T00:26:14.659Z,8.7
2023-01-12T00:27:23.018Z,8.7
2023-01-12T00:28:31.340Z,8.7
2023-01-12T00:29:39.891Z,8.7
2023-01-12T00:30:48.253Z,8.7
2023-01-12T00:31:56.620Z,8.7
2023-01-12T00:33:05.160Z,8.5
2023-01-12T00:34:13.505Z,8.5
2023-01-12T00:35:21.843Z,8.5
2023-01-12T00:36:30.451Z,8
2023-01-12T00:37:38.813Z,8
2023-01-12T00:38:47.159Z,8
2023-01-12T00:40:02.156Z,8.2
2023-01-12T00:41:04.074Z,8.2
2023-01-12T00:42:12.416Z,8.2
2023-01-12T00:43:20.976Z,9.1
2023-01-12T00:44:29.324Z,9.1
2023-01-12T00:45:37.682Z,9.1
2023-01-12T00:46:46.229Z,6.9
2023-01-12T00:47:54.617Z,6.9
2023-01-12T00:49:02.921Z,6.9
2023-01-12T00:50:11.459Z,8.3
2023-01-12T00:51:19.835Z,8.3
2023-01-12T00:52:31.105Z,8.3
2023-01-12T00:53:36.692Z,9.3
2023-01-12T00:54:45.054Z,9.3
2023-01-12T00:55:53.431Z,9.3
2023-01-12T00:57:01.957Z,7.4
2023-01-12T00:58:10.303Z,7.4
2023-01-12T00:59:18.655Z,7.4
2023-01-12T01:00:27.204Z,7.7
2023-01-12T01:01:35.669Z,7.7
2023-01-12T01:02:43.937Z,7.7
2023-01-12T01:03:52.487Z,8.7
2023-01-12T01:05:00.831Z,8.7
2023-01-12T01:06:09.185Z,8.7
2023-01-12T01:07:17.747Z,7.7
2023-01-12T01:08:26.091Z,7.7
2023-01-12T01:09:34.436Z,7.7
2023-01-12T01:10:43.005Z,13.2
2023-01-12T01:11:51.365Z,13.2
2023-01-12T01:12:59.678Z,13.2
2023-01-12T01:14:08.223Z,8.8
2023-01-12T01:15:16.566Z,8.8
2023-01-12T01:16:24.925Z,8.8
2023-01-12T01:17:33.488Z,7.4
2023-01-12T01:18:41.837Z,7.4
2023-01-12T01:19:50.186Z,7.4
2023-01-12T01:20:58.749Z,9.4
2023-01-12T01:22:07.093Z,9.4
2023-01-12T01:23:15.441Z,9.4
2023-01-12T01:24:23.999Z,9.1
2023-01-12T01:25:32.349Z,9.1
2023-01-12T01:26:40.709Z,9.1
2023-01-12T01:27:49.275Z,6.9
2023-01-12T01:28:57.601Z,6.9
2023-01-12T01:30:05.951Z,6.9
2023-01-12T01:31:14.531Z,9
2023-01-12T01:32:22.852Z,9
2023-01-12T01:33:31.185Z,9
2023-01-12T01:34:39.728Z,9.1
2023-01-12T01:35:48.090Z,9.1
2023-01-12T01:36:56.437Z,9.1
2023-01-12T01:38:04.974Z,9.8
2023-01-12T01:39:13.321Z,9.8
2023-01-12T01:40:21.684Z,9.8
2023-01-12T01:41:30.231Z,12
2023-01-12T01:42:38.584Z,12
2023-01-12T01:43:46.959Z,12
2023-01-12T01:44:55.486Z,9.5
2023-01-12T01:46:03.914Z,9.5
2023-01-12T01:47:12.176Z,9.5
2023-01-12T01:48:20.731Z,11.1
2023-01-12T01:49:29.078Z,11.1
2023-01-12T01:50:37.422Z,11.1
2023-01-12T01:51:45.982Z,9.7
2023-01-12T01:52:54.316Z,9.7
2023-01-12T01:54:02.676Z,9.7
2023-01-12T01:55:11.308Z,8.7
2023-01-12T01:56:19.592Z,8.7
2023-01-12T01:57:27.937Z,8.7
2023-01-12T01:58:36.491Z,9
2023-01-12T01:59:44.858Z,9
2023-01-12T02:00:53.245Z,9
2023-01-12T02:02:01.804Z,7
2023-01-12T02:03:10.207Z,7
2023-01-12T02:04:18.464Z,7
2023-01-12T02:05:27.001Z,6.4
2023-01-12T02:06:35.370Z,6.4
2023-01-12T02:07:43.703Z,6.4
2023-01-12T02:08:52.264Z,9.4
2023-01-12T02:10:00.612Z,9.4
2023-01-12T02:11:08.981Z,9.4
2023-01-12T02:12:17.529Z,6.2
2023-01-12T02:13:25.870Z,6.2
2023-01-12T02:14:34.257Z,6.2
2023-01-12T02:15:42.864Z,9.6
2023-01-12T02:16:51.169Z,9.6
2023-01-12T02:17:59.497Z,9.6
2023-01-12T02:19:08.044Z,10.8
2023-01-12T02:20:16.398Z,10.8
2023-01-12T02:21:24.733Z,10.8
2023-01-12T02:22:33.294Z,8.5
2023-01-12T02:23:41.632Z,8.5
2023-01-12T02:24:49.968Z,8.5
2023-01-12T02:25:58.549Z,9.1
2023-01-12T02:27:06.898Z,9.1
2023-01-12T02:28:15.248Z,9.1
2023-01-12T02:29:23.793Z,9.1
2023-01-12T02:30:32.159Z,9.1
2023-01-12T02:31:40.577Z,9.1
2023-01-12T02:32:49.063Z,9.4
2023-01-12T02:33:57.397Z,9.4
2023-01-12T02:35:05.758Z,9.4
2023-01-12T02:36:14.311Z,10
2023-01-12T02:37:22.653Z,10
2023-01-12T02:38:31.013Z,10
2023-01-12T02:39:39.549Z,13.1
2023-01-12T02:40:47.922Z,13.1
2023-01-12T02:41:56.260Z,13.1
2023-01-12T02:43:04.793Z,9.8
2023-01-12T02:44:13.144Z,9.8
2023-01-12T02:45:21.490Z,9.8
2023-01-12T02:46:30.118Z,13.3
2023-01-12T02:47:38.446Z,13.3
2023-01-12T02:48:46.741Z,13.3
2023-01-12T02:49:55.281Z,8.1
2023-01-12T02:51:03.648Z,8.1
2023-01-12T02:52:11.992Z,8.1
2023-01-12T02:53:20.536Z,8.9
2023-01-12T02:54:28.879Z,8.9
2023-01-12T02:55:37.209Z,8.9
2023-01-12T02:56:45.782Z,9.7
2023-01-12T02:57:54.139Z,9.7
2023-01-12T02:59:02.472Z,9.7
2023-01-12T03:00:11.004Z,11.4
2023-01-12T03:01:19.499Z,11.4
2023-01-12T03:02:27.722Z,11.4
2023-01-12T03:03:36.305Z,8.6
2023-01-12T03:04:44.626Z,8.6
2023-01-12T03:05:52.992Z,8.6
2023-01-12T03:07:01.567Z,8.5
2023-01-12T03:08:09.883Z,8.5
2023-01-12T03:09:18.253Z,8.5
2023-01-12T03:10:26.801Z,8.8
2023-01-12T03:11:35.150Z,8.8
2023-01-12T03:12:43.486Z,8.8
2023-01-12T03:13:52.035Z,8.7
2023-01-12T03:15:00.376Z,8.7
2023-01-12T03:16:08.795Z,8.7
2023-01-12T03:17:17.293Z,11.5
2023-01-12T03:18:25.629Z,11.5
2023-01-12T03:19:34.022Z,11.5
2023-01-12T03:20:42.531Z,14.6
2023-01-12T03:21:50.902Z,14.6
2023-01-12T03:22:59.245Z,14.6
2023-01-12T03:24:07.799Z,10
2023-01-12T03:25:16.159Z,10
2023-01-12T03:26:24.508Z,10
2023-01-12T03:27:33.055Z,9.5
2023-01-12T03:28:41.395Z,9.5
2023-01-12T03:29:49.756Z,9.5
2023-01-12T03:30:58.329Z,10.1
2023-01-12T03:32:06.670Z,10.1
2023-01-12T03:33:15.016Z,10.1
2023-01-12T03:34:23.557Z,10.7
2023-01-12T03:35:31.931Z,10.7
2023-01-12T03:36:40.263Z,10.7
2023-01-12T03:37:48.824Z,11.4
2023-01-12T03:38:57.173Z,11.4
2023-01-12T03:40:05.503Z,11.4
2023-01-12T03:41:14.073Z,11
2023-01-12T03:42:22.431Z,11
2023-01-12T03:43:30.788Z,11
2023-01-12T03:44:39.339Z,11.8
2023-01-12T03:45:47.695Z,11.8
2023-01-12T03:46:56.085Z,11.8
2023-01-12T03:48:04.615Z,7.7
2023-01-12T03:49:12.976Z,7.7
2023-01-12T03:50:21.312Z,7.7
2023-01-12T03:51:29.894Z,11.2
2023-01-12T03:52:38.230Z,11.2
2023-01-12T03:53:46.553Z,11.2
2023-01-12T03:54:55.111Z,9.3
2023-01-12T03:56:03.468Z,9.3
2023-01-12T03:57:11.804Z,9.3
2023-01-12T03:58:20.365Z,12.7
2023-01-12T03:59:28.716Z,12.7
2023-01-12T04:00:37.086Z,12.7
2023-01-12T04:01:45.710Z,11.5
2023-01-12T04:02:54.009Z,11.5
2023-01-12T04:04:02.301Z,11.5
2023-01-12T04:05:10.851Z,11.8
2023-01-12T04:06:19.228Z,11.8
2023-01-12T04:07:27.579Z,11.8
2023-01-12T04:08:36.101Z,6.9
2023-01-12T04:09:44.451Z,6.9
2023-01-12T04:10:52.810Z,6.9
2023-01-12T04:12:01.372Z,10.6
2023-01-12T04:13:09.725Z,10.6
2023-01-12T04:14:18.050Z,10.6
2023-01-12T04:15:26.619Z,7.8
2023-01-12T04:16:35.003Z,7.8
2023-01-12T04:17:43.353Z,7.8
2023-01-12T04:18:51.901Z,14
2023-01-12T04:20:00.236Z,14
2023-01-12T04:21:08.603Z,14
2023-01-12T04:22:17.155Z,9.5
2023-01-12T04:23:25.526Z,9.5
2023-01-12T04:24:33.843Z,9.5
2023-01-12T04:25:42.396Z,8.3
2023-01-12T04:26:50.762Z,8.3
2023-01-12T04:27:59.089Z,8.3
2023-01-12T04:29:07.631Z,8.5
2023-01-12T04:30:15.982Z,8.5
2023-01-12T04:31:24.371Z,8.5
2023-01-12T04:32:32.894Z,8.3
2023-01-12T04:33:41.233Z,8.3
2023-01-12T04:34:49.634Z,8.3
2023-01-12T04:35:58.246Z,11.6
2023-01-12T04:37:06.610Z,11.6
2023-01-12T04:38:14.976Z,11.6
2023-01-12T04:39:23.622Z,9.9
2023-01-12T04:40:31.873Z,9.9
2023-01-12T04:41:40.231Z,9.9
2023-01-12T04:42:48.788Z,8.1
2023-01-12T04:43:57.126Z,8.1
2023-01-12T04:45:05.472Z,8.1
2023-01-12T04:46:14.122Z,10.5
2023-01-12T04:47:22.374Z,10.5
2023-01-12T04:48:30.710Z,10.5
2023-01-12T04:49:39.248Z,10.1
2023-01-12T04:50:47.589Z,10.1
2023-01-12T04:51:55.970Z,10.1
2023-01-12T04:53:04.530Z,10.4
2023-01-12T04:54:12.817Z,10.4
2023-01-12T04:55:21.202Z,10.4
2023-01-12T04:56:29.738Z,7.5
2023-01-12T04:57:38.084Z,7.5
2023-01-12T04:58:46.403Z,7.5
2023-01-12T04:59:54.971Z,9
2023-01-12T05:01:03.319Z,9
2023-01-12T05:02:11.755Z,9
2023-01-12T05:03:20.215Z,8.9
2023-01-12T05:04:28.597Z,8.9
2023-01-12T05:05:36.887Z,8.9
2023-01-12T05:06:45.450Z,9
2023-01-12T05:07:53.802Z,9
2023-01-12T05:09:02.149Z,9
2023-01-12T05:10:10.763Z,20.700001
2023-01-12T05:11:19.145Z,20.700001
2023-01-12T05:12:27.458Z,20.700001
2023-01-12T05:13:36.022Z,22.4
2023-01-12T05:14:44.368Z,22.4
2023-01-12T05:15:52.726Z,22.4
2023-01-12T05:17:01.263Z,12.4
2023-01-12T05:18:09.604Z,12.4
2023-01-12T05:19:17.958Z,12.4
2023-01-12T05:20:26.505Z,9.7
2023-01-12T05:21:34.862Z,9.7
2023-01-12T05:22:43.205Z,9.7
2023-01-12T05:23:51.771Z,22.9
2023-01-12T05:25:00.106Z,22.9
2023-01-12T05:26:08.469Z,22.9
2023-01-12T05:27:17.113Z,18.5
2023-01-12T05:28:25.354Z,18.5
2023-01-12T05:29:33.679Z,18.5
2023-01-12T05:30:42.252Z,12.1
2023-01-12T05:31:50.579Z,12.1
2023-01-12T05:32:58.961Z,12.1
2023-01-12T05:34:07.492Z,29.299999
2023-01-12T05:35:15.813Z,29.299999
2023-01-12T05:36:26.424Z,29.299999
2023-01-12T05:37:32.728Z,16.5
2023-01-12T05:38:41.069Z,16.5
2023-01-12T05:39:49.409Z,16.5
2023-01-12T05:40:57.978Z,8.9
2023-01-12T05:42:06.324Z,8.9
2023-01-12T05:43:14.670Z,8.9
2023-01-12T05:44:23.202Z,10.3
2023-01-12T05:45:31.560Z,10.3
2023-01-12T05:46:39.922Z,10.3
2023-01-12T05:47:48.487Z,9.6
2023-01-12T05:48:56.871Z,9.6
2023-01-12T05:50:05.182Z,9.6
2023-01-12T05:51:13.745Z,11
2023-01-12T05:52:22.080Z,11
2023-01-12T05:53:30.437Z,11
2023-01-12T05:54:38.983Z,20.299999
2023-01-12T05:55:47.321Z,20.299999
2023-01-12T05:56:55.683Z,20.299999
2023-01-12T05:58:04.240Z,20.4
2023-01-12T05:59:12.608Z,20.4
2023-01-12T06:00:20.921Z,20.4
2023-01-12T06:01:29.589Z,12.7
2023-01-12T06:02:37.903Z,12.7
2023-01-12T06:03:46.201Z,12.7
2023-01-12T06:04:54.897Z,10.5
2023-01-12T06:06:03.129Z,10.5
2023-01-12T06:07:11.489Z,10.5
2023-01-12T06:08:20.065Z,9.6
2023-01-12T06:09:28.426Z,9.6
2023-01-12T06:10:36.756Z,9.6
2023-01-12T06:11:45.323Z,11
2023-01-12T06:12:53.699Z,11
2023-01-12T06:14:02.103Z,11
2023-01-12T06:15:10.668Z,8.6
2023-01-12T06:16:19.060Z,8.6
2023-01-12T06:17:27.394Z,8.6
2023-01-12T06:18:35.938Z,8.7
2023-01-12T06:19:44.283Z,8.7
2023-01-12T06:20:52.622Z,8.7
2023-01-12T06:22:01.183Z,8.4
2023-01-12T06:23:09.537Z,8.4
2023-01-12T06:24:17.867Z,8.4
2023-01-12T06:25:26.427Z,13.7
2023-01-12T06:26:34.809Z,13.7
2023-01-12T06:27:43.132Z,13.7
2023-01-12T06:28:51.732Z,11.4
2023-01-12T06:30:00.083Z,11.4
2023-01-12T06:31:08.569Z,11.4
2023-01-12T06:32:16.991Z,9.4
2023-01-12T06:33:25.341Z,9.4
2023-01-12T06:34:33.705Z,9.4
2023-01-12T06:35:42.253Z,8.1
2023-01-12T06:36:50.649Z,8.1
2023-01-12T06:37:59.007Z,8.1
2023-01-12T06:39:07.561Z,8.4
2023-01-12T06:40:15.926Z,8.4
2023-01-12T06:41:24.265Z,8.4
2023-01-12T06:42:32.831Z,11.7
2023-01-12T06:43:41.253Z,11.7
2023-01-12T06:44:49.595Z,11.7
2023-01-12T06:45:58.217Z,9
2023-01-12T06:47:06.581Z,9
2023-01-12T06:48:14.873Z,9
2023-01-12T06:49:23.433Z,11
2023-01-12T06:50:31.792Z,11
2023-01-12T06:51:40.131Z,11
2023-01-12T06:52:48.716Z,10
2023-01-12T06:53:57.098Z,10
2023-01-12T06:55:05.413Z,10
2023-01-12T06:56:13.987Z,7
2023-01-12T06:57:22.333Z,7
2023-01-12T06:58:30.666Z,7
2023-01-12T06:59:39.233Z,7.9
2023-01-12T07:00:47.619Z,7.9
2023-01-12T07:01:55.974Z,7.9
2023-01-12T07:03:04.552Z,8.4
2023-01-12T07:04:12.949Z,8.4
2023-01-12T07:05:21.201Z,8.4
2023-01-12T07:06:29.780Z,11.3
2023-01-12T07:07:40.137Z,11.3
2023-01-12T07:08:46.467Z,11.3
2023-01-12T07:09:55.015Z,8.6
2023-01-12T07:11:03.397Z,8.6
2023-01-12T07:12:11.742Z,8.6
2023-01-12T07:13:20.297Z,9.2
2023-01-12T07:14:28.643Z,9.2
2023-01-12T07:15:37.102Z,9.2
2023-01-12T07:16:45.614Z,8.5
2023-01-12T07:17:53.973Z,8.5
2023-01-12T07:19:02.370Z,8.5
2023-01-12T07:20:10.883Z,7.8
2023-01-12T07:21:19.276Z,7.8
2023-01-12T07:22:27.672Z,7.8
2023-01-12T07:23:36.236Z,8.9
2023-01-12T07:24:44.572Z,8.9
2023-01-12T07:25:52.926Z,8.9
2023-01-12T07:27:01.569Z,9.2
2023-01-12T07:28:09.836Z,9.2
2023-01-12T07:29:18.200Z,9.2
2023-01-12T07:30:26.767Z,8.8
2023-01-12T07:31:35.129Z,8.8
2023-01-12T07:32:43.472Z,8.8
2023-01-12T07:33:52.024Z,9.6
2023-01-12T07:35:00.461Z,9.6
2023-01-12T07:36:08.735Z,9.6
2023-01-12T07:37:17.287Z,8.6
2023-01-12T07:38:25.619Z,8.6
2023-01-12T07:39:33.963Z,8.6
2023-01-12T07:40:42.511Z,8.5
2023-01-12T07:41:50.901Z,8.5
2023-01-12T07:42:59.213Z,8.5
2023-01-12T07:44:07.765Z,10.1
2023-01-12T07:45:16.102Z,10.1
2023-01-12T07:46:24.482Z,10.1
2023-01-12T07:47:33.001Z,9
2023-01-12T07:48:41.372Z,9
2023-01-12T07:49:49.729Z,9
2023-01-12T07:50:58.333Z,10.9
2023-01-12T07:52:06.729Z,10.9
2023-01-12T07:53:15.100Z,10.9
2023-01-12T07:54:23.657Z,18.200001
2023-01-12T07:55:32.038Z,18.200001
2023-01-12T07:56:40.583Z,18.200001
2023-01-12T07:57:48.991Z,5.4
2023-01-12T07:58:57.348Z,5.4
2023-01-12T08:00:05.693Z,5.4
2023-01-12T08:01:14.350Z,8.2
2023-01-12T08:02:22.806Z,8.2
2023-01-12T08:03:31.034Z,8.2
2023-01-12T08:04:39.626Z,7.7
2023-01-12T08:05:47.978Z,7.7
2023-01-12T08:06:56.350Z,7.7
2023-01-12T08:08:04.898Z,6.4
2023-01-12T08:09:13.261Z,6.4
2023-01-12T08:10:21.640Z,6.4
2023-01-12T08:11:30.227Z,6.8
2023-01-12T08:12:38.589Z,6.8
2023-01-12T08:13:46.956Z,6.8
2023-01-12T08:14:55.530Z,9.2
2023-01-12T08:16:03.944Z,9.2
2023-01-12T08:17:12.201Z,9.2
2023-01-12T08:18:20.860Z,10.1
2023-01-12T08:19:29.177Z,10.1
2023-01-12T08:20:37.581Z,10.1
2023-01-12T08:21:46.268Z,7
2023-01-12T08:22:54.568Z,7
2023-01-12T08:24:02.916Z,7
2023-01-12T08:25:11.475Z,7.6
2023-01-12T08:26:19.824Z,7.6
2023-01-12T08:27:28.180Z,7.6
2023-01-12T08:28:36.772Z,8.2
2023-01-12T08:29:45.163Z,8.2
2023-01-12T08:30:53.510Z,8.2
2023-01-12T08:32:02.747Z,9
2023-01-12T08:33:10.437Z,9
2023-01-12T08:34:18.808Z,9
2023-01-12T08:35:27.343Z,7.6
2023-01-12T08:36:35.709Z,7.6
2023-01-12T08:37:44.106Z,7.6
2023-01-12T08:38:52.723Z,6.2
2023-01-12T08:40:01.053Z,6.2
2023-01-12T08:41:09.439Z,6.2
2023-01-12T08:42:17.984Z,9.5
2023-01-12T08:43:26.343Z,9.5
2023-01-12T08:44:34.730Z,9.5
2023-01-12T08:45:43.304Z,6.8
2023-01-12T08:46:51.749Z,6.8
2023-01-12T08:48:00.073Z,6.8
2023-01-12T08:49:08.645Z,7
2023-01-12T08:50:16.999Z,7
2023-01-12T08:51:25.356Z,7
2023-01-12T08:52:33.892Z,8.1
2023-01-12T08:53:42.241Z,8.1
2023-01-12T08:54:50.636Z,8.1
2023-01-12T08:55:59.173Z,9.6
2023-01-12T08:57:07.513Z,9.6
2023-01-12T08:58:15.877Z,9.6
2023-01-12T08:59:24.435Z,7.9
2023-01-12T09:00:32.878Z,7.9
2023-01-12T09:01:41.373Z,7.9
2023-01-12T09:02:49.767Z,5.6
2023-01-12T09:03:58.085Z,5.6
2023-01-12T09:05:06.432Z,5.6
2023-01-12T09:06:15.010Z,7.4
2023-01-12T09:07:23.340Z,7.4
2023-01-12T09:08:31.708Z,7.4
2023-01-12T09:09:40.260Z,6.5
2023-01-12T09:10:48.638Z,6.5
2023-01-12T09:11:56.960Z,6.5
2023-01-12T09:13:05.591Z,6.9
2023-01-12T09:14:13.921Z,6.9
2023-01-12T09:15:22.268Z,6.9
2023-01-12T09:16:30.862Z,4.8
2023-01-12T09:17:39.214Z,4.8
2023-01-12T09:18:47.599Z,4.8
2023-01-12T09:19:56.155Z,4.5
2023-01-12T09:21:04.493Z,4.5
2023-01-12T09:22:12.838Z,4.5
2023-01-12T09:23:21.414Z,6.5
2023-01-12T09:24:29.797Z,6.5
2023-01-12T09:25:38.123Z,6.5
2023-01-12T09:26:46.751Z,3.8
2023-01-12T09:27:55.065Z,3.8
2023-01-12T09:29:03.420Z,3.8
2023-01-12T09:30:11.991Z,4.2
2023-01-12T09:31:20.355Z,4.2
2023-01-12T09:32:36.080Z,4.2
2023-01-12T09:33:37.245Z,11.8
2023-01-12T09:34:45.573Z,11.8
2023-01-12T09:35:53.954Z,11.8
2023-01-12T09:37:02.517Z,4.8
2023-01-12T09:38:10.875Z,4.8
2023-01-12T09:39:27.149Z,4.8
2023-01-12T09:40:27.786Z,6.4
2023-01-12T09:41:36.145Z,6.4
2023-01-12T09:42:44.522Z,6.4
2023-01-12T09:43:53.075Z,3.8
2023-01-12T09:45:01.408Z,3.8
2023-01-12T09:46:09.878Z,3.8
2023-01-12T09:47:18.415Z,4.1
2023-01-12T09:48:26.769Z,4.1
2023-01-12T09:49:35.117Z,4.1
2023-01-12T09:50:43.681Z,5.1
2023-01-12T09:51:52.024Z,5.1
2023-01-12T09:53:00.388Z,5.1
2023-01-12T09:54:08.936Z,4.4
2023-01-12T09:55:17.306Z,4.4
2023-01-12T09:56:25.702Z,4.4
2023-01-12T09:57:34.254Z,5.6
2023-01-12T09:58:42.654Z,5.6
2023-01-12T09:59:50.991Z,5.6
2023-01-12T10:00:59.603Z,3.4
2023-01-12T10:02:08.056Z,3.4
2023-01-12T10:03:16.349Z,3.4
2023-01-12T10:04:24.879Z,3.9
2023-01-12T10:05:39.412Z,3.9
2023-01-12T10:06:41.575Z,3.9
2023-01-12T10:07:50.121Z,3
2023-01-12T10:08:58.538Z,3
2023-01-12T10:10:06.910Z,3
2023-01-12T10:11:15.453Z,4.5
2023-01-12T10:12:23.798Z,4.5
2023-01-12T10:13:32.151Z,4.5
2023-01-12T10:14:40.733Z,4.5
2023-01-12T10:15:49.052Z,4.5
2023-01-12T10:16:57.394Z,4.5
2023-01-12T10:18:06.034Z,3.3
2023-01-12T10:19:14.405Z,3.3
2023-01-12T10:20:22.814Z,3.3
2023-01-12T10:21:31.396Z,2
2023-01-12T10:22:39.806Z,2
2023-01-12T10:23:48.242Z,2
2023-01-12T10:24:56.781Z,4.3
2023-01-12T10:26:05.152Z,4.3
2023-01-12T10:27:13.532Z,4.3
2023-01-12T10:28:22.099Z,2.1
2023-01-12T10:29:30.468Z,2.1
2023-01-12T10:30:38.855Z,2.1
2023-01-12T10:31:47.436Z,2.9
2023-01-12T10:32:55.766Z,2.9
2023-01-12T10:34:04.160Z,2.9
2023-01-12T10:35:12.758Z,1.9
2023-01-12T10:36:21.115Z,1.9
2023-01-12T10:37:29.564Z,1.9
2023-01-12T10:38:38.202Z,3.1
2023-01-12T10:39:46.527Z,3.1
2023-01-12T10:40:54.893Z,3.1
2023-01-12T10:42:03.507Z,2.3
2023-01-12T10:43:15.650Z,2.3
2023-01-12T10:44:20.277Z,2.3
2023-01-12T10:45:28.873Z,2.3
2023-01-12T10:46:37.258Z,2.3
2023-01-12T10:47:45.587Z,2.3
2023-01-12T10:48:56.190Z,4.2
2023-01-12T10:50:02.511Z,4.2
2023-01-12T10:51:10.873Z,4.2
2023-01-12T10:52:19.460Z,1.9
2023-01-12T10:53:27.896Z,1.9
2023-01-12T10:54:36.475Z,1.9
2023-01-12T10:55:45.077Z,2.3
2023-01-12T10:56:53.456Z,2.3
2023-01-12T10:58:01.819Z,2.3
2023-01-12T10:59:10.356Z,3.4
2023-01-12T11:00:18.708Z,3.4
2023-01-12T11:01:27.136Z,3.4
2023-01-12T11:02:35.677Z,1.8
2023-01-12T11:03:43.997Z,1.8
2023-01-12T11:04:53.142Z,1.8
2023-01-12T11:06:01.750Z,4.9
2023-01-12T11:07:10.096Z,4.9
2023-01-12T11:08:18.527Z,4.9
2023-01-12T11:09:27.089Z,2.4
2023-01-12T11:10:35.451Z,2.4
2023-01-12T11:11:43.809Z,2.4
2023-01-12T11:12:52.390Z,2.5
2023-01-12T11:14:00.922Z,2.5
2023-01-12T11:15:09.374Z,2.5
2023-01-12T11:16:17.905Z,2.6
2023-01-12T11:17:26.268Z,2.6
2023-01-12T11:18:34.686Z,2.6
2023-01-12T11:19:43.232Z,2.8
2023-01-12T11:20:51.596Z,2.8
2023-01-12T11:22:00.051Z,2.8
2023-01-12T11:23:08.643Z,2.6
2023-01-12T11:24:16.986Z,2.6
2023-01-12T11:25:25.434Z,2.6
2023-01-12T11:26:34.054Z,3.2
2023-01-12T11:27:42.543Z,3.2
2023-01-12T11:28:51.005Z,3.2
2023-01-12T11:29:59.612Z,1.6
2023-01-12T11:31:08.902Z,1.6
2023-01-12T11:32:17.190Z,1.6
2023-01-12T11:33:25.847Z,2.6
2023-01-12T11:34:34.519Z,2.6
2023-01-12T11:35:52.223Z,2.6
2023-01-12T11:37:00.797Z,1.4
2023-01-12T11:38:09.184Z,1.4
2023-01-12T11:39:17.566Z,1.4
2023-01-12T11:40:26.159Z,1.4
2023-01-12T11:41:34.519Z,1.4
2023-01-12T11:42:42.930Z,1.4
2023-01-12T11:43:51.659Z,2.2
2023-01-12T11:45:00.065Z,2.2
2023-01-12T11:46:08.442Z,2.2
2023-01-12T11:47:16.989Z,1.4
2023-01-12T11:48:25.468Z,1.4
2023-01-12T11:49:33.833Z,1.4
2023-01-12T11:50:42.496Z,2.4
2023-01-12T11:51:50.848Z,2.4
2023-01-12T11:52:59.269Z,2.4
2023-01-12T11:54:07.896Z,1.7
2023-01-12T11:55:16.305Z,1.7
2023-01-12T11:56:24.706Z,1.7
2023-01-12T11:57:33.299Z,2.4
2023-01-12T11:58:41.689Z,2.4
2023-01-12T11:59:50.043Z,2.4
2023-01-12T12:00:58.702Z,0.7
2023-01-12T12:02:07.115Z,0.7
2023-01-12T12:03:15.568Z,0.7
2023-01-12T12:04:24.069Z,1.5
2023-01-12T12:05:32.537Z,1.5
2023-01-12T12:06:41.018Z,1.5
2023-01-12T12:07:49.579Z,4.1
2023-01-12T12:08:58.010Z,4.1
2023-01-12T12:10:06.348Z,4.1
2023-01-12T12:11:14.939Z,1.8
2023-01-12T12:12:23.277Z,1.8
2023-01-12T12:13:31.655Z,1.8
2023-01-12T12:14:40.217Z,1.5
2023-01-12T12:15:48.607Z,1.5
2023-01-12T12:16:56.925Z,1.5
2023-01-12T12:18:05.500Z,1.8
2023-01-12T12:19:13.877Z,1.8
2023-01-12T12:20:22.241Z,1.8
2023-01-12T12:21:30.798Z,1.9
2023-01-12T12:22:39.215Z,1.9
2023-01-12T12:23:47.544Z,1.9
2023-01-12T12:24:56.095Z,1.4
2023-01-12T12:26:04.509Z,1.4
2023-01-12T12:27:12.912Z,1.4
2023-01-12T12:28:21.497Z,1.3
2023-01-12T12:29:29.897Z,1.3
2023-01-12T12:30:38.264Z,1.3
2023-01-12T12:31:46.831Z,1.2
2023-01-12T12:32:55.231Z,1.2
2023-01-12T12:34:03.590Z,1.2
2023-01-12T12:35:12.202Z,1.7
2023-01-12T12:36:20.564Z,1.7
2023-01-12T12:37:29.012Z,1.7
2023-01-12T12:38:37.613Z,2.4
2023-01-12T12:39:45.960Z,2.4
2023-01-12T12:40:54.322Z,2.4
2023-01-12T12:42:02.867Z,1.9
2023-01-12T12:43:11.256Z,1.9
2023-01-12T12:44:19.631Z,1.9
2023-01-12T12:45:28.203Z,2.2
2023-01-12T12:46:36.633Z,2.2
2023-01-12T12:47:44.979Z,2.2
2023-01-12T12:48:53.588Z,1.7
2023-01-12T12:50:01.954Z,1.7
2023-01-12T12:51:10.337Z,1.7
2023-01-12T12:52:18.897Z,1.5
2023-01-12T12:53:27.263Z,1.5
2023-01-12T12:54:35.697Z,1.5
2023-01-12T12:55:44.229Z,1.8
2023-01-12T12:56:52.585Z,1.8
2023-01-12T12:58:00.991Z,1.8
2023-01-12T12:59:09.535Z,1.4
2023-01-12T13:00:17.955Z,1.4
2023-01-12T13:01:26.340Z,1.4
2023-01-12T13:02:34.822Z,2.2
2023-01-12T13:03:43.208Z,2.2
2023-01-12T13:04:51.539Z,2.2
2023-01-12T13:06:00.143Z,2.3
2023-01-12T13:07:08.447Z,2.3
2023-01-12T13:08:16.824Z,2.3
2023-01-12T13:09:25.411Z,2.4
2023-01-12T13:10:33.783Z,2.4
2023-01-12T13:11:42.120Z,2.4
2023-01-12T13:12:50.674Z,1.2
2023-01-12T13:13:59.079Z,1.2
2023-01-12T13:15:07.444Z,1.2
2023-01-12T13:16:16.058Z,1.9
2023-01-12T13:17:24.371Z,1.9
2023-01-12T13:18:32.734Z,1.9
2023-01-12T13:19:41.332Z,1.8
2023-01-12T13:20:49.698Z,1.8
2023-01-12T13:21:58.157Z,1.8
2023-01-12T13:23:06.623Z,3.1
2023-01-12T13:24:15.006Z,3.1
2023-01-12T13:25:23.358Z,3.1
2023-01-12T13:26:32.085Z,2.2
2023-01-12T13:27:40.331Z,2.2
2023-01-12T13:28:48.794Z,2.2
2023-01-12T13:29:57.369Z,2.1
2023-01-12T13:31:05.715Z,2.1
2023-01-12T13:32:14.148Z,2.1
2023-01-12T13:33:22.762Z,4.2
2023-01-12T13:34:31.237Z,4.2
2023-01-12T13:35:39.595Z,4.2
2023-01-12T13:36:48.165Z,1.6
2023-01-12T13:37:56.584Z,1.6
2023-01-12T13:39:05.008Z,1.6
2023-01-12T13:40:13.601Z,1.1
2023-01-12T13:41:21.976Z,1.1
2023-01-12T13:42:30.373Z,1.1
2023-01-12T13:43:39.040Z,4.3
2023-01-12T13:44:47.375Z,4.3
2023-01-12T13:45:55.879Z,4.3
2023-01-12T13:47:04.484Z,1.3
2023-01-12T13:48:12.891Z,1.3
2023-01-12T13:49:21.297Z,1.3
2023-01-12T13:50:29.842Z,1.3
2023-01-12T13:51:38.226Z,1.3
2023-01-12T13:52:46.572Z,1.3
2023-01-12T13:53:55.161Z,3.1
2023-01-12T13:55:03.512Z,3.1
2023-01-12T13:56:11.900Z,3.1
2023-01-12T13:57:20.451Z,1.3
2023-01-12T13:58:28.823Z,1.3
2023-01-12T13:59:37.170Z,1.3
2023-01-12T14:00:45.720Z,1.7
2023-01-12T14:01:54.159Z,1.7
2023-01-12T14:03:02.578Z,1.7
2023-01-12T14:04:11.060Z,1.6
2023-01-12T14:05:19.421Z,1.6
2023-01-12T14:06:27.804Z,1.6
2023-01-12T14:07:36.342Z,2.1
2023-01-12T14:08:51.450Z,2.1
2023-01-12T14:09:53.108Z,2.1
2023-01-12T14:11:01.631Z,2.1
2023-01-12T14:12:09.979Z,2.1
2023-01-12T14:13:18.432Z,2.1
2023-01-12T14:14:26.993Z,2.7
2023-01-12T14:15:35.338Z,2.7
2023-01-12T14:16:43.682Z,2.7
2023-01-12T14:17:52.346Z,2.7
2023-01-12T14:19:00.673Z,2.7
2023-01-12T14:20:09.024Z,2.7
2023-01-12T14:21:17.604Z,1.9
2023-01-12T14:22:26.023Z,1.9
2023-01-12T14:23:34.404Z,1.9
2023-01-12T14:24:42.981Z,4.8
2023-01-12T14:25:51.401Z,4.8
2023-01-12T14:26:59.751Z,4.8
2023-01-12T14:28:08.355Z,2.6
2023-01-12T14:29:16.730Z,2.6
2023-01-12T14:30:25.105Z,2.6
2023-01-12T15:04:20.205Z,0
2023-01-12T15:05:28.554Z,0
2023-01-12T15:06:37.086Z,0
2023-01-12T15:07:45.601Z,3.1
2023-01-12T15:08:53.971Z,3.1
2023-01-12T15:10:02.450Z,3.1
2023-01-12T15:11:11.023Z,1.6
2023-01-12T15:12:19.380Z,1.6
2023-01-12T15:13:27.844Z,1.6
2023-01-12T15:14:36.357Z,2.3
2023-01-12T15:15:44.697Z,2.3
2023-01-12T15:16:53.141Z,2.3
2023-01-12T15:18:01.702Z,3.3
2023-01-12T15:19:10.081Z,3.3
2023-01-12T15:20:18.476Z,3.3
2023-01-12T15:21:26.988Z,2.8
2023-01-12T15:22:35.477Z,2.8
2023-01-12T15:23:43.831Z,2.8
2023-01-12T15:24:54.677Z,3.4
2023-01-12T15:26:00.759Z,3.4
2023-01-12T15:27:09.140Z,3.4
2023-01-12T15:28:17.704Z,5.4
2023-01-12T15:29:26.078Z,5.4
2023-01-12T15:30:34.473Z,5.4
2023-01-12T15:31:43.063Z,2.9
2023-01-12T15:32:51.462Z,2.9
2023-01-12T15:33:59.769Z,2.9
2023-01-12T15:35:08.319Z,7.6
2023-01-12T15:36:16.705Z,7.6
2023-01-12T15:37:25.035Z,7.6
2023-01-12T15:38:33.598Z,3.9
2023-01-12T15:39:41.955Z,3.9
2023-01-12T15:40:50.319Z,3.9
2023-01-12T15:41:58.856Z,4.7
2023-01-12T15:43:07.204Z,4.7
2023-01-12T15:44:15.556Z,4.7
2023-01-12T15:45:24.117Z,2.9
2023-01-12T15:46:32.473Z,2.9
2023-01-12T15:47:40.836Z,2.9
2023-01-12T15:48:49.365Z,1.5
2023-01-12T15:49:57.723Z,1.5
2023-01-12T15:51:06.084Z,1.5
2023-01-12T15:52:14.663Z,1.9
2023-01-12T15:53:23.009Z,1.9
2023-01-12T15:54:31.353Z,1.9
2023-01-12T15:55:39.902Z,2.4
2023-01-12T15:56:48.258Z,2.4
2023-01-12T15:57:56.606Z,2.4
2023-01-12T15:59:05.178Z,1.6
2023-01-12T16:00:13.527Z,1.6
2023-01-12T16:01:21.983Z,1.6
2023-01-12T16:02:30.466Z,2.1
2023-01-12T16:04:00.864Z,2.1
2023-01-12T16:04:47.299Z,2.1
2023-01-12T16:05:55.771Z,1.7
2023-01-12T16:07:04.134Z,1.7
2023-01-12T16:08:12.534Z,1.7
2023-01-12T16:09:21.076Z,1.6
2023-01-12T16:10:29.400Z,1.6
2023-01-12T16:11:37.741Z,1.6